sensor_id;sensor_type;location;lat;lon;timestamp;P1;durP1;ratioP1;P2;durP2;ratioP2
77262;SDS011;66373;52.334;4.806;2024-02-14T00:00:12;8.52;;;5.85;;
77262;SDS011;66373;52.334;4.806;2024-02-14T00:02:41;9.63;;;5.50;;
77262;SDS011;66373;52.334;4.806;2024-02-14T00:05:10;7.80;;;5.07;;
77262;SDS011;66373;52.334;4.806;2024-02-14T00:07:38;7.25;;;5.40;;
77262;SDS011;66373;52.334;4.806;2024-02-14T00:10:05;7.10;;;5.07;;
77262;SDS011;66373;52.334;4.806;2024-02-14T00:12:35;7.13;;;5.03;;
77262;SDS011;66373;52.334;4.806;2024-02-14T00:15:03;6.80;;;4.93;;
77262;SDS011;66373;52.334;4.806;2024-02-14T00:17:31;5.97;;;4.47;;
77262;SDS011;66373;52.334;4.806;2024-02-14T00:19:59;6.75;;;4.97;;
77262;SDS011;66373;52.334;4.806;2024-02-14T00:22:26;6.63;;;4.60;;
77262;SDS011;66373;52.334;4.806;2024-02-14T00:24:53;6.25;;;4.75;;
77262;SDS011;66373;52.334;4.806;2024-02-14T00:27:21;7.78;;;4.82;;
77262;SDS011;66373;52.334;4.806;2024-02-14T00:29:49;6.00;;;4.78;;
77262;SDS011;66373;52.334;4.806;2024-02-14T00:32:16;8.57;;;5.10;;
77262;SDS011;66373;52.334;4.806;2024-02-14T00:34:44;5.47;;;4.55;;
77262;SDS011;66373;52.334;4.806;2024-02-14T00:37:11;6.70;;;4.80;;
77262;SDS011;66373;52.334;4.806;2024-02-14T00:39:39;6.75;;;4.60;;
77262;SDS011;66373;52.334;4.806;2024-02-14T00:42:06;5.65;;;4.63;;
77262;SDS011;66373;52.334;4.806;2024-02-14T00:44:33;6.57;;;4.65;;
77262;SDS011;66373;52.334;4.806;2024-02-14T00:47:02;5.28;;;4.03;;
77262;SDS011;66373;52.334;4.806;2024-02-14T00:49:29;7.30;;;4.60;;
77262;SDS011;66373;52.334;4.806;2024-02-14T00:51:57;5.90;;;4.32;;
77262;SDS011;66373;52.334;4.806;2024-02-14T00:54:24;4.47;;;3.80;;
77262;SDS011;66373;52.334;4.806;2024-02-14T00:56:51;5.70;;;4.30;;
77262;SDS011;66373;52.334;4.806;2024-02-14T00:59:18;5.43;;;4.00;;
77262;SDS011;66373;52.334;4.806;2024-02-14T01:01:45;5.43;;;4.15;;
77262;SDS011;66373;52.334;4.806;2024-02-14T01:04:14;5.25;;;4.20;;
77262;SDS011;66373;52.334;4.806;2024-02-14T01:06:41;5.18;;;4.10;;
77262;SDS011;66373;52.334;4.806;2024-02-14T01:09:08;4.57;;;3.63;;
77262;SDS011;66373;52.334;4.806;2024-02-14T01:11:36;5.57;;;3.70;;
77262;SDS011;66373;52.334;4.806;2024-02-14T01:14:03;4.25;;;3.85;;
77262;SDS011;66373;52.334;4.806;2024-02-14T01:16:31;5.68;;;3.72;;
77262;SDS011;66373;52.334;4.806;2024-02-14T01:18:58;5.63;;;4.10;;
77262;SDS011;66373;52.334;4.806;2024-02-14T01:21:27;4.82;;;4.10;;
77262;SDS011;66373;52.334;4.806;2024-02-14T01:23:54;4.22;;;3.83;;
77262;SDS011;66373;52.334;4.806;2024-02-14T01:26:21;5.53;;;3.72;;
77262;SDS011;66373;52.334;4.806;2024-02-14T01:28:48;4.93;;;4.03;;
77262;SDS011;66373;52.334;4.806;2024-02-14T01:31:15;6.57;;;3.53;;
77262;SDS011;66373;52.334;4.806;2024-02-14T01:33:43;4.32;;;3.55;;
77262;SDS011;66373;52.334;4.806;2024-02-14T01:36:11;4.55;;;3.80;;
77262;SDS011;66373;52.334;4.806;2024-02-14T01:38:40;5.47;;;3.92;;
77262;SDS011;66373;52.334;4.806;2024-02-14T01:41:08;3.67;;;3.38;;
77262;SDS011;66373;52.334;4.806;2024-02-14T01:43:35;4.32;;;3.63;;
77262;SDS011;66373;52.334;4.806;2024-02-14T01:46:04;4.38;;;3.53;;
77262;SDS011;66373;52.334;4.806;2024-02-14T01:48:33;4.22;;;3.45;;
77262;SDS011;66373;52.334;4.806;2024-02-14T01:51:01;5.28;;;4.00;;
77262;SDS011;66373;52.334;4.806;2024-02-14T01:53:30;5.40;;;3.55;;
77262;SDS011;66373;52.334;4.806;2024-02-14T01:56:00;4.25;;;3.60;;
77262;SDS011;66373;52.334;4.806;2024-02-14T01:58:30;3.72;;;3.33;;
77262;SDS011;66373;52.334;4.806;2024-02-14T02:00:57;3.53;;;2.97;;
77262;SDS011;66373;52.334;4.806;2024-02-14T02:03:24;4.07;;;3.40;;
77262;SDS011;66373;52.334;4.806;2024-02-14T02:05:52;3.53;;;3.22;;
77262;SDS011;66373;52.334;4.806;2024-02-14T02:08:20;3.17;;;2.88;;
77262;SDS011;66373;52.334;4.806;2024-02-14T02:10:47;3.20;;;2.90;;
77262;SDS011;66373;52.334;4.806;2024-02-14T02:13:16;3.78;;;3.28;;
77262;SDS011;66373;52.334;4.806;2024-02-14T02:15:43;3.88;;;2.97;;
77262;SDS011;66373;52.334;4.806;2024-02-14T02:18:11;3.10;;;2.78;;
77262;SDS011;66373;52.334;4.806;2024-02-14T02:20:38;3.67;;;3.10;;
77262;SDS011;66373;52.334;4.806;2024-02-14T02:23:10;3.08;;;2.78;;
77262;SDS011;66373;52.334;4.806;2024-02-14T02:25:40;3.85;;;3.17;;
77262;SDS011;66373;52.334;4.806;2024-02-14T02:28:07;4.35;;;3.08;;
77262;SDS011;66373;52.334;4.806;2024-02-14T02:30:35;3.30;;;3.00;;
77262;SDS011;66373;52.334;4.806;2024-02-14T02:33:02;3.22;;;2.80;;
77262;SDS011;66373;52.334;4.806;2024-02-14T02:35:30;2.97;;;2.67;;
77262;SDS011;66373;52.334;4.806;2024-02-14T02:37:57;3.33;;;2.80;;
77262;SDS011;66373;52.334;4.806;2024-02-14T02:40:26;3.20;;;2.90;;
77262;SDS011;66373;52.334;4.806;2024-02-14T02:42:53;3.30;;;3.00;;
77262;SDS011;66373;52.334;4.806;2024-02-14T02:45:20;3.00;;;2.63;;
77262;SDS011;66373;52.334;4.806;2024-02-14T02:47:48;2.63;;;2.42;;
77262;SDS011;66373;52.334;4.806;2024-02-14T02:50:16;3.00;;;2.70;;
77262;SDS011;66373;52.334;4.806;2024-02-14T02:52:45;2.97;;;2.55;;
77262;SDS011;66373;52.334;4.806;2024-02-14T02:55:12;2.65;;;2.45;;
77262;SDS011;66373;52.334;4.806;2024-02-14T02:57:41;2.50;;;2.30;;
77262;SDS011;66373;52.334;4.806;2024-02-14T03:00:11;2.95;;;2.65;;
77262;SDS011;66373;52.334;4.806;2024-02-14T03:02:39;3.40;;;2.58;;
77262;SDS011;66373;52.334;4.806;2024-02-14T03:05:09;2.90;;;2.45;;
77262;SDS011;66373;52.334;4.806;2024-02-14T03:07:43;2.85;;;2.33;;
77262;SDS011;66373;52.334;4.806;2024-02-14T03:10:11;2.70;;;2.50;;
77262;SDS011;66373;52.334;4.806;2024-02-14T03:12:40;2.95;;;2.42;;
77262;SDS011;66373;52.334;4.806;2024-02-14T03:15:09;2.83;;;2.40;;
77262;SDS011;66373;52.334;4.806;2024-02-14T03:17:38;3.85;;;2.60;;
77262;SDS011;66373;52.334;4.806;2024-02-14T03:20:06;2.80;;;2.17;;
77262;SDS011;66373;52.334;4.806;2024-02-14T03:22:38;3.28;;;2.20;;
77262;SDS011;66373;52.334;4.806;2024-02-14T03:25:11;3.25;;;2.03;;
77262;SDS011;66373;52.334;4.806;2024-02-14T03:27:39;3.08;;;2.25;;
77262;SDS011;66373;52.334;4.806;2024-02-14T03:30:08;4.60;;;2.38;;
77262;SDS011;66373;52.334;4.806;2024-02-14T03:32:36;4.15;;;2.30;;
77262;SDS011;66373;52.334;4.806;2024-02-14T03:35:03;2.33;;;2.10;;
77262;SDS011;66373;52.334;4.806;2024-02-14T03:37:31;4.10;;;2.25;;
77262;SDS011;66373;52.334;4.806;2024-02-14T03:39:59;3.30;;;2.20;;
77262;SDS011;66373;52.334;4.806;2024-02-14T03:42:29;5.80;;;2.85;;
77262;SDS011;66373;52.334;4.806;2024-02-14T03:44:57;3.22;;;2.25;;
77262;SDS011;66373;52.334;4.806;2024-02-14T03:47:30;4.80;;;2.55;;
77262;SDS011;66373;52.334;4.806;2024-02-14T03:49:58;3.30;;;2.30;;
77262;SDS011;66373;52.334;4.806;2024-02-14T03:52:25;5.18;;;2.58;;
77262;SDS011;66373;52.334;4.806;2024-02-14T03:54:52;6.55;;;2.40;;
77262;SDS011;66373;52.334;4.806;2024-02-14T03:57:20;5.63;;;2.35;;
77262;SDS011;66373;52.334;4.806;2024-02-14T03:59:47;3.35;;;1.90;;
77262;SDS011;66373;52.334;4.806;2024-02-14T04:02:14;5.22;;;2.33;;
77262;SDS011;66373;52.334;4.806;2024-02-14T04:04:43;5.50;;;2.67;;
77262;SDS011;66373;52.334;4.806;2024-02-14T04:07:11;4.88;;;2.45;;
77262;SDS011;66373;52.334;4.806;2024-02-14T04:09:39;6.00;;;2.60;;
77262;SDS011;66373;52.334;4.806;2024-02-14T04:12:06;4.68;;;2.10;;
77262;SDS011;66373;52.334;4.806;2024-02-14T04:14:35;6.30;;;2.53;;
77262;SDS011;66373;52.334;4.806;2024-02-14T04:17:04;6.88;;;2.38;;
77262;SDS011;66373;52.334;4.806;2024-02-14T04:19:32;5.88;;;2.63;;
77262;SDS011;66373;52.334;4.806;2024-02-14T04:22:01;4.00;;;2.00;;
77262;SDS011;66373;52.334;4.806;2024-02-14T04:24:28;7.18;;;2.65;;
77262;SDS011;66373;52.334;4.806;2024-02-14T04:26:55;6.30;;;2.65;;
77262;SDS011;66373;52.334;4.806;2024-02-14T04:29:23;7.60;;;2.60;;
77262;SDS011;66373;52.334;4.806;2024-02-14T04:31:50;5.65;;;2.40;;
77262;SDS011;66373;52.334;4.806;2024-02-14T04:34:17;7.50;;;2.30;;
77262;SDS011;66373;52.334;4.806;2024-02-14T04:36:45;6.50;;;2.50;;
77262;SDS011;66373;52.334;4.806;2024-02-14T04:39:13;4.35;;;2.05;;
77262;SDS011;66373;52.334;4.806;2024-02-14T04:41:40;6.15;;;2.42;;
77262;SDS011;66373;52.334;4.806;2024-02-14T04:44:08;4.68;;;2.17;;
77262;SDS011;66373;52.334;4.806;2024-02-14T04:46:35;6.53;;;2.60;;
77262;SDS011;66373;52.334;4.806;2024-02-14T04:49:03;10.02;;;3.03;;
77262;SDS011;66373;52.334;4.806;2024-02-14T04:51:30;6.97;;;2.55;;
77262;SDS011;66373;52.334;4.806;2024-02-14T04:53:57;4.40;;;2.10;;
77262;SDS011;66373;52.334;4.806;2024-02-14T04:56:26;5.43;;;2.45;;
77262;SDS011;66373;52.334;4.806;2024-02-14T04:58:54;5.50;;;2.05;;
77262;SDS011;66373;52.334;4.806;2024-02-14T05:01:21;6.15;;;2.42;;
77262;SDS011;66373;52.334;4.806;2024-02-14T05:03:48;7.03;;;2.38;;
77262;SDS011;66373;52.334;4.806;2024-02-14T05:06:16;5.68;;;2.42;;
77262;SDS011;66373;52.334;4.806;2024-02-14T05:08:43;5.65;;;2.30;;
77262;SDS011;66373;52.334;4.806;2024-02-14T05:11:10;6.22;;;2.38;;
77262;SDS011;66373;52.334;4.806;2024-02-14T05:13:39;7.30;;;2.58;;
77262;SDS011;66373;52.334;4.806;2024-02-14T05:16:07;5.93;;;2.15;;
77262;SDS011;66373;52.334;4.806;2024-02-14T05:18:36;4.28;;;2.22;;
77262;SDS011;66373;52.334;4.806;2024-02-14T05:21:05;6.75;;;2.35;;
77262;SDS011;66373;52.334;4.806;2024-02-14T05:23:32;5.47;;;2.20;;
77262;SDS011;66373;52.334;4.806;2024-02-14T05:26:00;6.70;;;2.25;;
77262;SDS011;66373;52.334;4.806;2024-02-14T05:28:27;10.25;;;2.47;;
77262;SDS011;66373;52.334;4.806;2024-02-14T05:33:25;5.45;;;2.22;;
77262;SDS011;66373;52.334;4.806;2024-02-14T05:35:53;7.50;;;2.22;;
77262;SDS011;66373;52.334;4.806;2024-02-14T05:38:20;6.95;;;2.45;;
77262;SDS011;66373;52.334;4.806;2024-02-14T05:40:47;6.55;;;2.20;;
77262;SDS011;66373;52.334;4.806;2024-02-14T05:43:14;3.15;;;2.00;;
77262;SDS011;66373;52.334;4.806;2024-02-14T05:45:43;5.05;;;2.40;;
77262;SDS011;66373;52.334;4.806;2024-02-14T05:48:12;4.00;;;2.30;;
77262;SDS011;66373;52.334;4.806;2024-02-14T05:50:40;5.82;;;2.38;;
77262;SDS011;66373;52.334;4.806;2024-02-14T05:53:07;5.05;;;2.08;;
77262;SDS011;66373;52.334;4.806;2024-02-14T05:55:34;6.43;;;2.30;;
77262;SDS011;66373;52.334;4.806;2024-02-14T05:58:01;7.78;;;2.47;;
77262;SDS011;66373;52.334;4.806;2024-02-14T06:00:28;4.18;;;1.80;;
77262;SDS011;66373;52.334;4.806;2024-02-14T06:02:55;3.35;;;2.00;;
77262;SDS011;66373;52.334;4.806;2024-02-14T06:05:24;4.90;;;2.28;;
77262;SDS011;66373;52.334;4.806;2024-02-14T06:07:51;5.05;;;2.63;;
77262;SDS011;66373;52.334;4.806;2024-02-14T06:10:18;6.85;;;2.25;;
77262;SDS011;66373;52.334;4.806;2024-02-14T06:12:46;4.50;;;2.42;;
77262;SDS011;66373;52.334;4.806;2024-02-14T06:15:13;4.70;;;2.00;;
77262;SDS011;66373;52.334;4.806;2024-02-14T06:17:40;4.68;;;2.30;;
77262;SDS011;66373;52.334;4.806;2024-02-14T06:20:08;5.32;;;2.15;;
77262;SDS011;66373;52.334;4.806;2024-02-14T06:22:37;7.07;;;2.25;;
77262;SDS011;66373;52.334;4.806;2024-02-14T06:25:04;4.85;;;2.22;;
77262;SDS011;66373;52.334;4.806;2024-02-14T06:27:32;7.20;;;2.33;;
77262;SDS011;66373;52.334;4.806;2024-02-14T06:29:59;3.58;;;2.30;;
77262;SDS011;66373;52.334;4.806;2024-02-14T06:32:26;5.20;;;1.92;;
77262;SDS011;66373;52.334;4.806;2024-02-14T06:34:53;6.85;;;2.38;;
77262;SDS011;66373;52.334;4.806;2024-02-14T06:37:20;6.28;;;2.53;;
77262;SDS011;66373;52.334;4.806;2024-02-14T06:39:49;7.10;;;2.25;;
77262;SDS011;66373;52.334;4.806;2024-02-14T06:42:16;5.40;;;2.10;;
77262;SDS011;66373;52.334;4.806;2024-02-14T06:44:45;5.00;;;2.10;;
77262;SDS011;66373;52.334;4.806;2024-02-14T06:47:12;4.70;;;2.15;;
77262;SDS011;66373;52.334;4.806;2024-02-14T06:49:39;4.32;;;2.17;;
77262;SDS011;66373;52.334;4.806;2024-02-14T06:52:06;10.27;;;2.63;;
77262;SDS011;66373;52.334;4.806;2024-02-14T06:54:33;3.80;;;1.92;;
77262;SDS011;66373;52.334;4.806;2024-02-14T06:57:02;5.10;;;2.35;;
77262;SDS011;66373;52.334;4.806;2024-02-14T06:59:30;7.72;;;2.13;;
77262;SDS011;66373;52.334;4.806;2024-02-14T07:01:57;5.75;;;2.20;;
77262;SDS011;66373;52.334;4.806;2024-02-14T07:04:24;4.82;;;2.30;;
77262;SDS011;66373;52.334;4.806;2024-02-14T07:06:52;4.70;;;2.13;;
77262;SDS011;66373;52.334;4.806;2024-02-14T07:09:20;4.43;;;2.10;;
77262;SDS011;66373;52.334;4.806;2024-02-14T07:11:47;6.68;;;1.90;;
77262;SDS011;66373;52.334;4.806;2024-02-14T07:14:16;4.88;;;2.38;;
77262;SDS011;66373;52.334;4.806;2024-02-14T07:16:43;5.40;;;1.98;;
77262;SDS011;66373;52.334;4.806;2024-02-14T07:19:10;5.30;;;1.90;;
77262;SDS011;66373;52.334;4.806;2024-02-14T07:21:37;5.38;;;2.42;;
77262;SDS011;66373;52.334;4.806;2024-02-14T07:24:05;4.63;;;2.20;;
77262;SDS011;66373;52.334;4.806;2024-02-14T07:26:32;3.55;;;1.85;;
77262;SDS011;66373;52.334;4.806;2024-02-14T07:28:59;5.30;;;2.17;;
77262;SDS011;66373;52.334;4.806;2024-02-14T07:31:30;3.50;;;2.17;;
77262;SDS011;66373;52.334;4.806;2024-02-14T07:33:58;4.82;;;2.20;;
77262;SDS011;66373;52.334;4.806;2024-02-14T07:36:26;3.33;;;2.00;;
77262;SDS011;66373;52.334;4.806;2024-02-14T07:38:53;4.38;;;2.03;;
77262;SDS011;66373;52.334;4.806;2024-02-14T07:41:20;5.95;;;2.20;;
77262;SDS011;66373;52.334;4.806;2024-02-14T07:43:47;4.00;;;2.03;;
77262;SDS011;66373;52.334;4.806;2024-02-14T07:46:16;5.28;;;1.90;;
77262;SDS011;66373;52.334;4.806;2024-02-14T07:48:46;5.70;;;2.00;;
77262;SDS011;66373;52.334;4.806;2024-02-14T07:51:14;3.55;;;1.92;;
77262;SDS011;66373;52.334;4.806;2024-02-14T07:53:41;3.78;;;2.30;;
77262;SDS011;66373;52.334;4.806;2024-02-14T07:56:08;2.78;;;2.00;;
77262;SDS011;66373;52.334;4.806;2024-02-14T07:58:35;4.80;;;2.22;;
77262;SDS011;66373;52.334;4.806;2024-02-14T08:01:02;5.10;;;2.20;;
77262;SDS011;66373;52.334;4.806;2024-02-14T08:03:29;4.78;;;2.15;;
77262;SDS011;66373;52.334;4.806;2024-02-14T08:05:58;4.70;;;1.98;;
77262;SDS011;66373;52.334;4.806;2024-02-14T08:08:25;3.00;;;1.92;;
77262;SDS011;66373;52.334;4.806;2024-02-14T08:10:53;6.00;;;2.10;;
77262;SDS011;66373;52.334;4.806;2024-02-14T08:13:21;5.10;;;2.13;;
77262;SDS011;66373;52.334;4.806;2024-02-14T08:15:48;4.45;;;1.90;;
77262;SDS011;66373;52.334;4.806;2024-02-14T08:18:15;3.08;;;1.75;;
77262;SDS011;66373;52.334;4.806;2024-02-14T08:20:42;5.95;;;2.20;;
77262;SDS011;66373;52.334;4.806;2024-02-14T08:23:11;6.72;;;2.30;;
77262;SDS011;66373;52.334;4.806;2024-02-14T08:25:38;3.47;;;2.20;;
77262;SDS011;66373;52.334;4.806;2024-02-14T08:28:06;2.65;;;1.90;;
77262;SDS011;66373;52.334;4.806;2024-02-14T08:30:33;2.38;;;1.90;;
77262;SDS011;66373;52.334;4.806;2024-02-14T08:33:00;3.00;;;1.95;;
77262;SDS011;66373;52.334;4.806;2024-02-14T08:35:28;5.38;;;2.10;;
77262;SDS011;66373;52.334;4.806;2024-02-14T08:37:55;4.25;;;2.03;;
77262;SDS011;66373;52.334;4.806;2024-02-14T08:40:23;5.35;;;2.08;;
77262;SDS011;66373;52.334;4.806;2024-02-14T08:42:50;5.88;;;1.95;;
77262;SDS011;66373;52.334;4.806;2024-02-14T08:45:18;6.85;;;2.20;;
77262;SDS011;66373;52.334;4.806;2024-02-14T08:47:45;3.38;;;2.20;;
77262;SDS011;66373;52.334;4.806;2024-02-14T08:50:12;3.67;;;2.00;;
77262;SDS011;66373;52.334;4.806;2024-02-14T08:52:39;4.60;;;2.42;;
77262;SDS011;66373;52.334;4.806;2024-02-14T08:55:06;6.13;;;2.72;;
77262;SDS011;66373;52.334;4.806;2024-02-14T08:57:41;4.95;;;2.22;;
77262;SDS011;66373;52.334;4.806;2024-02-14T09:00:08;5.93;;;2.45;;
77262;SDS011;66373;52.334;4.806;2024-02-14T09:02:40;6.03;;;2.08;;
77262;SDS011;66373;52.334;4.806;2024-02-14T09:05:07;5.55;;;2.20;;
77262;SDS011;66373;52.334;4.806;2024-02-14T09:07:35;6.57;;;2.05;;
77262;SDS011;66373;52.334;4.806;2024-02-14T09:10:02;5.25;;;2.47;;
77262;SDS011;66373;52.334;4.806;2024-02-14T09:12:30;5.97;;;1.92;;
77262;SDS011;66373;52.334;4.806;2024-02-14T09:15:00;3.53;;;2.20;;
77262;SDS011;66373;52.334;4.806;2024-02-14T09:17:30;6.10;;;2.40;;
77262;SDS011;66373;52.334;4.806;2024-02-14T09:19:57;6.25;;;2.33;;
77262;SDS011;66373;52.334;4.806;2024-02-14T09:22:24;2.95;;;2.13;;
77262;SDS011;66373;52.334;4.806;2024-02-14T09:24:51;4.60;;;2.25;;
77262;SDS011;66373;52.334;4.806;2024-02-14T09:27:19;5.85;;;2.00;;
77262;SDS011;66373;52.334;4.806;2024-02-14T09:29:46;4.18;;;1.88;;
77262;SDS011;66373;52.334;4.806;2024-02-14T09:32:15;3.88;;;1.92;;
77262;SDS011;66373;52.334;4.806;2024-02-14T09:34:42;4.05;;;2.33;;
77262;SDS011;66373;52.334;4.806;2024-02-14T09:37:11;4.05;;;2.05;;
77262;SDS011;66373;52.334;4.806;2024-02-14T09:39:38;7.97;;;2.20;;
77262;SDS011;66373;52.334;4.806;2024-02-14T09:42:07;3.17;;;2.10;;
77262;SDS011;66373;52.334;4.806;2024-02-14T09:44:35;5.88;;;1.90;;
77262;SDS011;66373;52.334;4.806;2024-02-14T09:47:05;3.90;;;2.38;;
77262;SDS011;66373;52.334;4.806;2024-02-14T09:49:34;5.38;;;2.17;;
77262;SDS011;66373;52.334;4.806;2024-02-14T09:52:02;5.25;;;2.10;;
77262;SDS011;66373;52.334;4.806;2024-02-14T09:54:30;3.47;;;1.77;;
77262;SDS011;66373;52.334;4.806;2024-02-14T09:56:59;5.25;;;2.05;;
77262;SDS011;66373;52.334;4.806;2024-02-14T09:59:28;5.10;;;2.65;;
77262;SDS011;66373;52.334;4.806;2024-02-14T10:01:56;3.75;;;2.10;;
77262;SDS011;66373;52.334;4.806;2024-02-14T10:04:23;4.50;;;2.42;;
77262;SDS011;66373;52.334;4.806;2024-02-14T10:06:52;3.17;;;2.20;;
77262;SDS011;66373;52.334;4.806;2024-02-14T10:09:19;2.97;;;2.03;;
77262;SDS011;66373;52.334;4.806;2024-02-14T10:11:47;3.10;;;1.95;;
77262;SDS011;66373;52.334;4.806;2024-02-14T10:14:14;3.97;;;2.15;;
77262;SDS011;66373;52.334;4.806;2024-02-14T10:16:42;5.88;;;2.35;;
77262;SDS011;66373;52.334;4.806;2024-02-14T10:19:14;5.53;;;2.47;;
77262;SDS011;66373;52.334;4.806;2024-02-14T10:21:42;3.85;;;1.95;;
77262;SDS011;66373;52.334;4.806;2024-02-14T10:24:11;3.03;;;1.90;;
77262;SDS011;66373;52.334;4.806;2024-02-14T10:26:39;5.35;;;2.05;;
77262;SDS011;66373;52.334;4.806;2024-02-14T10:29:08;5.57;;;2.13;;
77262;SDS011;66373;52.334;4.806;2024-02-14T10:31:37;3.70;;;1.80;;
77262;SDS011;66373;52.334;4.806;2024-02-14T10:34:04;3.22;;;1.92;;
77262;SDS011;66373;52.334;4.806;2024-02-14T10:36:34;2.28;;;1.90;;
77262;SDS011;66373;52.334;4.806;2024-02-14T10:39:05;5.00;;;2.10;;
77262;SDS011;66373;52.334;4.806;2024-02-14T10:41:36;2.67;;;1.88;;
77262;SDS011;66373;52.334;4.806;2024-02-14T10:44:03;2.17;;;2.00;;
77262;SDS011;66373;52.334;4.806;2024-02-14T10:46:32;3.25;;;1.83;;
77262;SDS011;66373;52.334;4.806;2024-02-14T10:49:02;1.95;;;1.80;;
77262;SDS011;66373;52.334;4.806;2024-02-14T10:51:31;2.63;;;2.10;;
77262;SDS011;66373;52.334;4.806;2024-02-14T10:54:00;2.17;;;1.95;;
77262;SDS011;66373;52.334;4.806;2024-02-14T10:56:31;3.05;;;2.63;;
77262;SDS011;66373;52.334;4.806;2024-02-14T10:59:00;4.40;;;1.70;;
77262;SDS011;66373;52.334;4.806;2024-02-14T11:01:29;3.40;;;2.15;;
77262;SDS011;66373;52.334;4.806;2024-02-14T11:03:58;2.42;;;1.70;;
77262;SDS011;66373;52.334;4.806;2024-02-14T11:06:26;2.20;;;2.00;;
77262;SDS011;66373;52.334;4.806;2024-02-14T11:08:57;2.22;;;2.00;;
77262;SDS011;66373;52.334;4.806;2024-02-14T11:11:32;2.53;;;1.73;;
77262;SDS011;66373;52.334;4.806;2024-02-14T11:14:00;5.05;;;1.98;;
77262;SDS011;66373;52.334;4.806;2024-02-14T11:16:30;2.10;;;1.85;;
77262;SDS011;66373;52.334;4.806;2024-02-14T11:19:08;4.20;;;2.00;;
77262;SDS011;66373;52.334;4.806;2024-02-14T11:21:36;2.00;;;1.90;;
77262;SDS011;66373;52.334;4.806;2024-02-14T11:24:04;2.75;;;1.67;;
77262;SDS011;66373;52.334;4.806;2024-02-14T11:26:39;2.47;;;1.70;;
77262;SDS011;66373;52.334;4.806;2024-02-14T11:29:15;3.38;;;2.00;;
77262;SDS011;66373;52.334;4.806;2024-02-14T11:31:43;1.80;;;1.70;;
77262;SDS011;66373;52.334;4.806;2024-02-14T11:34:11;2.15;;;1.90;;
77262;SDS011;66373;52.334;4.806;2024-02-14T11:36:39;1.92;;;1.77;;
77262;SDS011;66373;52.334;4.806;2024-02-14T11:39:08;2.08;;;1.60;;
77262;SDS011;66373;52.334;4.806;2024-02-14T11:41:37;1.90;;;1.70;;
77262;SDS011;66373;52.334;4.806;2024-02-14T11:44:05;3.15;;;2.05;;
77262;SDS011;66373;52.334;4.806;2024-02-14T11:46:34;1.98;;;1.88;;
77262;SDS011;66373;52.334;4.806;2024-02-14T11:49:02;2.70;;;2.15;;
77262;SDS011;66373;52.334;4.806;2024-02-14T11:51:31;2.08;;;1.73;;
77262;SDS011;66373;52.334;4.806;2024-02-14T11:54:01;2.75;;;1.80;;
77262;SDS011;66373;52.334;4.806;2024-02-14T11:56:30;2.15;;;1.95;;
77262;SDS011;66373;52.334;4.806;2024-02-14T11:58:59;3.83;;;2.00;;
77262;SDS011;66373;52.334;4.806;2024-02-14T12:01:28;2.00;;;1.80;;
77262;SDS011;66373;52.334;4.806;2024-02-14T12:03:58;2.00;;;1.80;;
77262;SDS011;66373;52.334;4.806;2024-02-14T12:06:27;2.08;;;1.98;;
77262;SDS011;66373;52.334;4.806;2024-02-14T12:08:56;1.60;;;1.50;;
77262;SDS011;66373;52.334;4.806;2024-02-14T12:11:26;2.03;;;1.83;;
77262;SDS011;66373;52.334;4.806;2024-02-14T12:13:54;2.10;;;2.00;;
77262;SDS011;66373;52.334;4.806;2024-02-14T12:16:22;3.65;;;2.10;;
77262;SDS011;66373;52.334;4.806;2024-02-14T12:18:49;1.77;;;1.67;;
77262;SDS011;66373;52.334;4.806;2024-02-14T12:21:34;2.85;;;1.90;;
77262;SDS011;66373;52.334;4.806;2024-02-14T12:24:02;2.42;;;1.88;;
77262;SDS011;66373;52.334;4.806;2024-02-14T12:26:30;1.90;;;1.77;;
77262;SDS011;66373;52.334;4.806;2024-02-14T12:28:58;3.00;;;2.20;;
77262;SDS011;66373;52.334;4.806;2024-02-14T12:31:29;1.85;;;1.75;;
77262;SDS011;66373;52.334;4.806;2024-02-14T12:33:56;2.22;;;1.70;;
77262;SDS011;66373;52.334;4.806;2024-02-14T12:36:26;2.00;;;1.73;;
77262;SDS011;66373;52.334;4.806;2024-02-14T12:38:54;1.77;;;1.65;;
77262;SDS011;66373;52.334;4.806;2024-02-14T12:41:21;2.05;;;1.75;;
77262;SDS011;66373;52.334;4.806;2024-02-14T12:43:49;2.58;;;1.75;;
77262;SDS011;66373;52.334;4.806;2024-02-14T12:46:16;2.00;;;1.77;;
77262;SDS011;66373;52.334;4.806;2024-02-14T12:48:43;2.28;;;2.00;;
77262;SDS011;66373;52.334;4.806;2024-02-14T12:51:11;2.20;;;1.80;;
77262;SDS011;66373;52.334;4.806;2024-02-14T12:53:39;2.45;;;2.17;;
77262;SDS011;66373;52.334;4.806;2024-02-14T12:56:07;1.90;;;1.80;;
77262;SDS011;66373;52.334;4.806;2024-02-14T12:58:34;1.98;;;1.83;;
77262;SDS011;66373;52.334;4.806;2024-02-14T13:01:01;2.88;;;2.25;;
77262;SDS011;66373;52.334;4.806;2024-02-14T13:03:31;1.85;;;1.75;;
77262;SDS011;66373;52.334;4.806;2024-02-14T13:05:58;2.15;;;1.98;;
77262;SDS011;66373;52.334;4.806;2024-02-14T13:08:25;1.88;;;1.60;;
77262;SDS011;66373;52.334;4.806;2024-02-14T13:10:54;2.45;;;1.70;;
77262;SDS011;66373;52.334;4.806;2024-02-14T13:13:22;2.17;;;2.03;;
77262;SDS011;66373;52.334;4.806;2024-02-14T13:15:49;3.50;;;1.88;;
77262;SDS011;66373;52.334;4.806;2024-02-14T13:18:16;2.08;;;1.88;;
77262;SDS011;66373;52.334;4.806;2024-02-14T13:20:44;1.92;;;1.83;;
77262;SDS011;66373;52.334;4.806;2024-02-14T13:23:11;2.20;;;1.92;;
77262;SDS011;66373;52.334;4.806;2024-02-14T13:25:39;1.80;;;1.70;;
77262;SDS011;66373;52.334;4.806;2024-02-14T13:28:08;1.75;;;1.65;;
77262;SDS011;66373;52.334;4.806;2024-02-14T13:30:35;5.57;;;1.83;;
77262;SDS011;66373;52.334;4.806;2024-02-14T13:33:02;1.88;;;1.55;;
77262;SDS011;66373;52.334;4.806;2024-02-14T13:35:30;3.58;;;1.73;;
77262;SDS011;66373;52.334;4.806;2024-02-14T13:37:57;2.47;;;1.70;;
77262;SDS011;66373;52.334;4.806;2024-02-14T13:40:24;2.72;;;2.00;;
77262;SDS011;66373;52.334;4.806;2024-02-14T13:42:51;3.08;;;1.58;;
77262;SDS011;66373;52.334;4.806;2024-02-14T13:45:20;1.80;;;1.70;;
77262;SDS011;66373;52.334;4.806;2024-02-14T13:47:47;1.90;;;1.73;;
77262;SDS011;66373;52.334;4.806;2024-02-14T13:50:14;2.17;;;2.08;;
77262;SDS011;66373;52.334;4.806;2024-02-14T13:52:41;2.50;;;2.10;;
77262;SDS011;66373;52.334;4.806;2024-02-14T13:55:09;2.05;;;1.95;;
77262;SDS011;66373;52.334;4.806;2024-02-14T13:57:37;2.08;;;1.80;;
77262;SDS011;66373;52.334;4.806;2024-02-14T14:00:05;2.10;;;1.90;;
77262;SDS011;66373;52.334;4.806;2024-02-14T14:02:42;2.15;;;2.00;;
77262;SDS011;66373;52.334;4.806;2024-02-14T14:05:09;1.75;;;1.65;;
77262;SDS011;66373;52.334;4.806;2024-02-14T14:07:37;2.78;;;1.77;;
77262;SDS011;66373;52.334;4.806;2024-02-14T14:10:06;1.80;;;1.75;;
77262;SDS011;66373;52.334;4.806;2024-02-14T14:12:35;2.78;;;1.92;;
77262;SDS011;66373;52.334;4.806;2024-02-14T14:15:02;1.95;;;1.80;;
77262;SDS011;66373;52.334;4.806;2024-02-14T14:17:31;2.50;;;1.95;;
77262;SDS011;66373;52.334;4.806;2024-02-14T14:20:00;1.80;;;1.70;;
77262;SDS011;66373;52.334;4.806;2024-02-14T14:22:29;1.77;;;1.63;;
77262;SDS011;66373;52.334;4.806;2024-02-14T14:24:55;2.88;;;1.75;;
77262;SDS011;66373;52.334;4.806;2024-02-14T14:27:22;2.15;;;1.80;;
77262;SDS011;66373;52.334;4.806;2024-02-14T14:29:49;2.20;;;1.55;;
77262;SDS011;66373;52.334;4.806;2024-02-14T14:32:16;1.95;;;1.77;;
77262;SDS011;66373;52.334;4.806;2024-02-14T14:34:43;2.72;;;1.90;;
77262;SDS011;66373;52.334;4.806;2024-02-14T14:37:12;2.35;;;1.70;;
77262;SDS011;66373;52.334;4.806;2024-02-14T14:39:39;2.47;;;1.60;;
77262;SDS011;66373;52.334;4.806;2024-02-14T14:42:07;1.77;;;1.60;;
77262;SDS011;66373;52.334;4.806;2024-02-14T14:44:34;1.80;;;1.48;;
77262;SDS011;66373;52.334;4.806;2024-02-14T14:47:01;1.25;;;1.25;;
77262;SDS011;66373;52.334;4.806;2024-02-14T14:49:28;1.77;;;1.67;;
77262;SDS011;66373;52.334;4.806;2024-02-14T14:51:56;2.20;;;1.63;;
77262;SDS011;66373;52.334;4.806;2024-02-14T14:54:25;2.35;;;1.60;;